sensor_id;sensor_type;location;lat;lon;timestamp;P1;durP1;ratioP1;P2;durP2;ratioP2
20802;SDS011;10562;-33.856;151.182;2022-09-14T00:02:05;2.97;;;0.90;;
20802;SDS011;10562;-33.856;151.182;2022-09-14T00:04:38;5.47;;;1.00;;
20802;SDS011;10562;-33.856;151.182;2022-09-14T00:07:09;5.18;;;1.05;;
20802;SDS011;10562;-33.856;151.182;2022-09-14T00:09:40;4.10;;;0.90;;
20802;SDS011;10562;-33.856;151.182;2022-09-14T00:12:11;4.07;;;0.93;;
20802;SDS011;10562;-33.856;151.182;2022-09-14T00:14:42;3.80;;;1.00;;
20802;SDS011;10562;-33.856;151.182;2022-09-14T00:17:13;2.35;;;0.75;;
20802;SDS011;10562;-33.856;151.182;2022-09-14T00:19:46;3.78;;;0.90;;
20802;SDS011;10562;-33.856;151.182;2022-09-14T00:22:18;4.28;;;0.80;;
20802;SDS011;10562;-33.856;151.182;2022-09-14T00:24:49;4.70;;;1.00;;
20802;SDS011;10562;-33.856;151.182;2022-09-14T00:27:20;5.38;;;0.85;;
20802;SDS011;10562;-33.856;151.182;2022-09-14T00:29:51;4.35;;;1.00;;
20802;SDS011;10562;-33.856;151.182;2022-09-14T00:32:22;2.38;;;0.90;;
20802;SDS011;10562;-33.856;151.182;2022-09-14T00:34:54;3.15;;;0.90;;
20802;SDS011;10562;-33.856;151.182;2022-09-14T00:37:25;4.50;;;0.90;;
20802;SDS011;10562;-33.856;151.182;2022-09-14T00:39:56;1.80;;;0.90;;
20802;SDS011;10562;-33.856;151.182;2022-09-14T00:42:27;4.90;;;0.60;;
20802;SDS011;10562;-33.856;151.182;2022-09-14T00:44:59;2.58;;;0.70;;
20802;SDS011;10562;-33.856;151.182;2022-09-14T00:47:33;3.63;;;0.70;;
20802;SDS011;10562;-33.856;151.182;2022-09-14T00:50:07;2.65;;;0.90;;
20802;SDS011;10562;-33.856;151.182;2022-09-14T00:52:39;4.60;;;0.80;;
20802;SDS011;10562;-33.856;151.182;2022-09-14T00:55:14;2.22;;;0.80;;
20802;SDS011;10562;-33.856;151.182;2022-09-14T00:57:49;7.63;;;1.20;;
20802;SDS011;10562;-33.856;151.182;2022-09-14T01:00:22;2.70;;;0.80;;
20802;SDS011;10562;-33.856;151.182;2022-09-14T01:02:54;2.17;;;0.65;;
20802;SDS011;10562;-33.856;151.182;2022-09-14T01:05:30;1.50;;;0.60;;
20802;SDS011;10562;-33.856;151.182;2022-09-14T01:08:15;2.08;;;0.52;;
20802;SDS011;10562;-33.856;151.182;2022-09-14T01:11:10;2.08;;;0.88;;
20802;SDS011;10562;-33.856;151.182;2022-09-14T01:13:52;2.13;;;0.80;;
20802;SDS011;10562;-33.856;151.182;2022-09-14T01:16:29;2.15;;;0.80;;
20802;SDS011;10562;-33.856;151.182;2022-09-14T01:19:09;2.25;;;0.80;;
20802;SDS011;10562;-33.856;151.182;2022-09-14T01:22:04;2.10;;;0.77;;
20802;SDS011;10562;-33.856;151.182;2022-09-14T01:24:39;4.13;;;0.90;;
20802;SDS011;10562;-33.856;151.182;2022-09-14T01:27:24;2.80;;;0.85;;
20802;SDS011;10562;-33.856;151.182;2022-09-14T01:30:03;2.30;;;0.77;;
20802;SDS011;10562;-33.856;151.182;2022-09-14T01:32:38;2.30;;;0.80;;
20802;SDS011;10562;-33.856;151.182;2022-09-14T01:35:13;1.77;;;0.70;;
20802;SDS011;10562;-33.856;151.182;2022-09-14T01:37:47;3.53;;;0.85;;
20802;SDS011;10562;-33.856;151.182;2022-09-14T01:40:23;1.40;;;0.70;;
20802;SDS011;10562;-33.856;151.182;2022-09-14T01:43:00;3.38;;;0.60;;
20802;SDS011;10562;-33.856;151.182;2022-09-14T01:45:40;3.90;;;0.80;;
20802;SDS011;10562;-33.856;151.182;2022-09-14T01:48:14;1.92;;;0.70;;
20802;SDS011;10562;-33.856;151.182;2022-09-14T01:50:49;2.55;;;0.70;;
20802;SDS011;10562;-33.856;151.182;2022-09-14T01:53:23;3.20;;;0.82;;
20802;SDS011;10562;-33.856;151.182;2022-09-14T01:56:00;4.63;;;0.90;;
20802;SDS011;10562;-33.856;151.182;2022-09-14T01:58:35;3.35;;;0.70;;
20802;SDS011;10562;-33.856;151.182;2022-09-14T02:01:08;2.65;;;0.75;;
20802;SDS011;10562;-33.856;151.182;2022-09-14T02:03:48;1.90;;;0.70;;
20802;SDS011;10562;-33.856;151.182;2022-09-14T02:06:23;2.63;;;0.70;;
20802;SDS011;10562;-33.856;151.182;2022-09-14T02:08:57;1.98;;;0.60;;
20802;SDS011;10562;-33.856;151.182;2022-09-14T02:11:28;1.10;;;0.60;;
20802;SDS011;10562;-33.856;151.182;2022-09-14T02:14:00;3.17;;;0.50;;
20802;SDS011;10562;-33.856;151.182;2022-09-14T02:16:32;3.67;;;0.88;;
20802;SDS011;10562;-33.856;151.182;2022-09-14T02:19:03;1.90;;;0.60;;
20802;SDS011;10562;-33.856;151.182;2022-09-14T02:21:34;2.10;;;0.70;;
20802;SDS011;10562;-33.856;151.182;2022-09-14T02:24:05;2.50;;;0.80;;
20802;SDS011;10562;-33.856;151.182;2022-09-14T02:26:37;2.58;;;0.60;;
20802;SDS011;10562;-33.856;151.182;2022-09-14T02:29:11;2.10;;;0.50;;
20802;SDS011;10562;-33.856;151.182;2022-09-14T02:31:45;3.13;;;0.77;;
20802;SDS011;10562;-33.856;151.182;2022-09-14T02:34:27;2.53;;;0.80;;
20802;SDS011;10562;-33.856;151.182;2022-09-14T02:37:07;1.98;;;0.43;;
20802;SDS011;10562;-33.856;151.182;2022-09-14T02:39:45;2.60;;;0.50;;
20802;SDS011;10562;-33.856;151.182;2022-09-14T02:42:23;1.88;;;0.52;;
20802;SDS011;10562;-33.856;151.182;2022-09-14T02:45:06;3.70;;;0.57;;
20802;SDS011;10562;-33.856;151.182;2022-09-14T02:47:48;1.05;;;0.50;;
20802;SDS011;10562;-33.856;151.182;2022-09-14T02:50:26;2.28;;;0.60;;
20802;SDS011;10562;-33.856;151.182;2022-09-14T02:53:04;2.38;;;0.68;;
20802;SDS011;10562;-33.856;151.182;2022-09-14T02:55:39;4.90;;;0.57;;
20802;SDS011;10562;-33.856;151.182;2022-09-14T02:58:13;0.70;;;0.43;;
20802;SDS011;10562;-33.856;151.182;2022-09-14T03:00:46;2.28;;;0.43;;
20802;SDS011;10562;-33.856;151.182;2022-09-14T03:03:17;2.50;;;0.40;;
20802;SDS011;10562;-33.856;151.182;2022-09-14T03:05:49;2.83;;;0.50;;
20802;SDS011;10562;-33.856;151.182;2022-09-14T03:08:20;2.08;;;0.60;;
20802;SDS011;10562;-33.856;151.182;2022-09-14T03:10:51;1.63;;;0.47;;
20802;SDS011;10562;-33.856;151.182;2022-09-14T03:13:22;2.90;;;0.60;;
20802;SDS011;10562;-33.856;151.182;2022-09-14T03:15:54;1.77;;;0.60;;
20802;SDS011;10562;-33.856;151.182;2022-09-14T03:18:25;3.80;;;0.70;;
20802;SDS011;10562;-33.856;151.182;2022-09-14T03:21:01;1.27;;;0.50;;
20802;SDS011;10562;-33.856;151.182;2022-09-14T03:23:36;2.25;;;0.80;;
20802;SDS011;10562;-33.856;151.182;2022-09-14T03:26:07;7.00;;;2.88;;
20802;SDS011;10562;-33.856;151.182;2022-09-14T03:28:38;3.63;;;1.80;;
20802;SDS011;10562;-33.856;151.182;2022-09-14T03:31:11;2.22;;;1.10;;
20802;SDS011;10562;-33.856;151.182;2022-09-14T03:33:42;3.08;;;0.80;;
20802;SDS011;10562;-33.856;151.182;2022-09-14T03:36:14;2.38;;;0.60;;
20802;SDS011;10562;-33.856;151.182;2022-09-14T03:38:46;1.48;;;0.55;;
20802;SDS011;10562;-33.856;151.182;2022-09-14T03:41:19;3.17;;;0.55;;
20802;SDS011;10562;-33.856;151.182;2022-09-14T03:43:51;1.90;;;0.60;;
20802;SDS011;10562;-33.856;151.182;2022-09-14T03:46:24;1.77;;;0.52;;
20802;SDS011;10562;-33.856;151.182;2022-09-14T03:48:55;1.88;;;0.55;;
20802;SDS011;10562;-33.856;151.182;2022-09-14T03:51:26;1.25;;;0.52;;
20802;SDS011;10562;-33.856;151.182;2022-09-14T03:53:56;1.05;;;0.50;;
20802;SDS011;10562;-33.856;151.182;2022-09-14T03:56:27;2.22;;;0.57;;
20802;SDS011;10562;-33.856;151.182;2022-09-14T03:58:58;2.25;;;0.32;;
20802;SDS011;10562;-33.856;151.182;2022-09-14T04:01:31;1.50;;;0.40;;
20802;SDS011;10562;-33.856;151.182;2022-09-14T04:04:02;1.52;;;0.32;;
20802;SDS011;10562;-33.856;151.182;2022-09-14T04:06:33;2.53;;;0.55;;
20802;SDS011;10562;-33.856;151.182;2022-09-14T04:09:03;0.43;;;0.30;;
20802;SDS011;10562;-33.856;151.182;2022-09-14T04:11:34;0.77;;;0.30;;
20802;SDS011;10562;-33.856;151.182;2022-09-14T04:14:05;3.38;;;0.70;;
20802;SDS011;10562;-33.856;151.182;2022-09-14T04:16:38;1.38;;;0.40;;
20802;SDS011;10562;-33.856;151.182;2022-09-14T04:19:10;0.73;;;0.32;;
20802;SDS011;10562;-33.856;151.182;2022-09-14T04:21:41;1.45;;;0.55;;
20802;SDS011;10562;-33.856;151.182;2022-09-14T04:24:12;0.60;;;0.40;;
20802;SDS011;10562;-33.856;151.182;2022-09-14T04:26:43;3.05;;;0.60;;
20802;SDS011;10562;-33.856;151.182;2022-09-14T04:29:14;1.50;;;0.50;;
20802;SDS011;10562;-33.856;151.182;2022-09-14T04:31:46;1.05;;;0.40;;
20802;SDS011;10562;-33.856;151.182;2022-09-14T04:34:17;2.58;;;0.40;;
20802;SDS011;10562;-33.856;151.182;2022-09-14T04:36:48;1.38;;;0.40;;
20802;SDS011;10562;-33.856;151.182;2022-09-14T04:39:19;3.13;;;0.52;;
20802;SDS011;10562;-33.856;151.182;2022-09-14T04:41:51;2.90;;;0.60;;
20802;SDS011;10562;-33.856;151.182;2022-09-14T04:44:22;2.67;;;0.43;;
20802;SDS011;10562;-33.856;151.182;2022-09-14T04:46:55;1.65;;;0.50;;
20802;SDS011;10562;-33.856;151.182;2022-09-14T04:49:26;1.20;;;0.60;;
20802;SDS011;10562;-33.856;151.182;2022-09-14T04:51:57;0.70;;;0.28;;
20802;SDS011;10562;-33.856;151.182;2022-09-14T04:54:28;3.33;;;0.50;;
20802;SDS011;10562;-33.856;151.182;2022-09-14T04:56:59;1.17;;;0.40;;
20802;SDS011;10562;-33.856;151.182;2022-09-14T04:59:30;3.70;;;0.60;;
20802;SDS011;10562;-33.856;151.182;2022-09-14T05:02:03;0.82;;;0.40;;
20802;SDS011;10562;-33.856;151.182;2022-09-14T05:04:33;0.98;;;0.30;;
20802;SDS011;10562;-33.856;151.182;2022-09-14T05:07:04;1.10;;;0.40;;
20802;SDS011;10562;-33.856;151.182;2022-09-14T05:09:35;3.17;;;0.63;;
20802;SDS011;10562;-33.856;151.182;2022-09-14T05:12:06;1.05;;;0.50;;
20802;SDS011;10562;-33.856;151.182;2022-09-14T05:14:37;2.80;;;0.73;;
20802;SDS011;10562;-33.856;151.182;2022-09-14T05:17:10;2.38;;;0.47;;
20802;SDS011;10562;-33.856;151.182;2022-09-14T05:19:40;1.55;;;0.50;;
20802;SDS011;10562;-33.856;151.182;2022-09-14T05:22:11;1.80;;;0.60;;
20802;SDS011;10562;-33.856;151.182;2022-09-14T05:24:42;1.85;;;0.40;;
20802;SDS011;10562;-33.856;151.182;2022-09-14T05:27:13;1.63;;;0.60;;
20802;SDS011;10562;-33.856;151.182;2022-09-14T05:29:44;0.47;;;0.40;;
20802;SDS011;10562;-33.856;151.182;2022-09-14T05:32:16;0.80;;;0.50;;
20802;SDS011;10562;-33.856;151.182;2022-09-14T05:37:25;2.15;;;0.40;;
20802;SDS011;10562;-33.856;151.182;2022-09-14T05:39:56;1.13;;;0.40;;
20802;SDS011;10562;-33.856;151.182;2022-09-14T05:42:27;0.77;;;0.40;;
20802;SDS011;10562;-33.856;151.182;2022-09-14T05:44:58;2.50;;;0.50;;
20802;SDS011;10562;-33.856;151.182;2022-09-14T05:47:31;0.85;;;0.32;;
20802;SDS011;10562;-33.856;151.182;2022-09-14T05:50:02;1.35;;;0.32;;
20802;SDS011;10562;-33.856;151.182;2022-09-14T05:52:33;0.80;;;0.50;;
20802;SDS011;10562;-33.856;151.182;2022-09-14T05:55:04;1.80;;;0.50;;
20802;SDS011;10562;-33.856;151.182;2022-09-14T05:57:35;1.38;;;0.47;;
20802;SDS011;10562;-33.856;151.182;2022-09-14T06:00:06;1.55;;;0.52;;
20802;SDS011;10562;-33.856;151.182;2022-09-14T06:02:40;2.53;;;0.40;;
20802;SDS011;10562;-33.856;151.182;2022-09-14T06:05:15;3.40;;;0.55;;
20802;SDS011;10562;-33.856;151.182;2022-09-14T06:07:49;2.67;;;0.50;;
20802;SDS011;10562;-33.856;151.182;2022-09-14T06:10:20;3.10;;;0.50;;
20802;SDS011;10562;-33.856;151.182;2022-09-14T06:12:51;1.88;;;0.50;;
20802;SDS011;10562;-33.856;151.182;2022-09-14T06:15:22;1.25;;;0.50;;
20802;SDS011;10562;-33.856;151.182;2022-09-14T06:17:55;1.90;;;0.50;;
20802;SDS011;10562;-33.856;151.182;2022-09-14T06:20:26;2.45;;;0.50;;
20802;SDS011;10562;-33.856;151.182;2022-09-14T06:22:57;2.80;;;0.43;;
20802;SDS011;10562;-33.856;151.182;2022-09-14T06:25:28;2.50;;;0.47;;
20802;SDS011;10562;-33.856;151.182;2022-09-14T06:27:59;1.13;;;0.60;;
20802;SDS011;10562;-33.856;151.182;2022-09-14T06:30:30;2.42;;;0.60;;
20802;SDS011;10562;-33.856;151.182;2022-09-14T06:33:04;3.83;;;0.63;;
20802;SDS011;10562;-33.856;151.182;2022-09-14T06:35:38;2.38;;;0.80;;
20802;SDS011;10562;-33.856;151.182;2022-09-14T06:38:11;1.17;;;0.70;;
20802;SDS011;10562;-33.856;151.182;2022-09-14T06:40:49;1.98;;;0.60;;
20802;SDS011;10562;-33.856;151.182;2022-09-14T06:43:22;1.65;;;0.50;;
20802;SDS011;10562;-33.856;151.182;2022-09-14T06:45:56;1.60;;;0.50;;
20802;SDS011;10562;-33.856;151.182;2022-09-14T06:48:30;5.45;;;0.90;;
20802;SDS011;10562;-33.856;151.182;2022-09-14T06:51:09;3.13;;;0.77;;
20802;SDS011;10562;-33.856;151.182;2022-09-14T06:53:42;3.13;;;0.88;;
20802;SDS011;10562;-33.856;151.182;2022-09-14T06:56:13;2.40;;;1.00;;
20802;SDS011;10562;-33.856;151.182;2022-09-14T06:58:44;2.97;;;1.05;;
20802;SDS011;10562;-33.856;151.182;2022-09-14T07:01:16;1.70;;;0.70;;
20802;SDS011;10562;-33.856;151.182;2022-09-14T07:03:49;1.73;;;0.63;;
20802;SDS011;10562;-33.856;151.182;2022-09-14T07:06:20;2.45;;;0.80;;
20802;SDS011;10562;-33.856;151.182;2022-09-14T07:08:52;2.67;;;0.90;;
20802;SDS011;10562;-33.856;151.182;2022-09-14T07:11:23;2.83;;;0.60;;
20802;SDS011;10562;-33.856;151.182;2022-09-14T07:13:55;1.88;;;0.60;;
20802;SDS011;10562;-33.856;151.182;2022-09-14T07:16:27;2.72;;;0.80;;
20802;SDS011;10562;-33.856;151.182;2022-09-14T07:19:02;2.47;;;0.60;;
20802;SDS011;10562;-33.856;151.182;2022-09-14T07:21:33;1.20;;;0.60;;
20802;SDS011;10562;-33.856;151.182;2022-09-14T07:24:05;1.48;;;0.75;;
20802;SDS011;10562;-33.856;151.182;2022-09-14T07:26:36;3.25;;;0.68;;
20802;SDS011;10562;-33.856;151.182;2022-09-14T07:29:09;3.35;;;0.60;;
20802;SDS011;10562;-33.856;151.182;2022-09-14T07:31:41;2.28;;;0.80;;
20802;SDS011;10562;-33.856;151.182;2022-09-14T07:34:16;2.35;;;0.70;;
20802;SDS011;10562;-33.856;151.182;2022-09-14T07:36:49;3.47;;;0.77;;
20802;SDS011;10562;-33.856;151.182;2022-09-14T07:39:19;3.05;;;0.80;;
20802;SDS011;10562;-33.856;151.182;2022-09-14T07:41:50;4.60;;;0.98;;
20802;SDS011;10562;-33.856;151.182;2022-09-14T07:44:21;2.88;;;1.00;;
20802;SDS011;10562;-33.856;151.182;2022-09-14T07:46:52;3.95;;;0.70;;
20802;SDS011;10562;-33.856;151.182;2022-09-14T07:49:24;4.38;;;0.90;;
20802;SDS011;10562;-33.856;151.182;2022-09-14T07:51:55;3.97;;;0.90;;
20802;SDS011;10562;-33.856;151.182;2022-09-14T07:54:27;3.45;;;0.80;;
20802;SDS011;10562;-33.856;151.182;2022-09-14T07:57:00;2.50;;;0.80;;
20802;SDS011;10562;-33.856;151.182;2022-09-14T07:59:31;3.33;;;1.20;;
20802;SDS011;10562;-33.856;151.182;2022-09-14T08:02:03;2.90;;;0.90;;
20802;SDS011;10562;-33.856;151.182;2022-09-14T08:04:36;4.25;;;1.02;;
20802;SDS011;10562;-33.856;151.182;2022-09-14T08:07:10;3.20;;;1.00;;
20802;SDS011;10562;-33.856;151.182;2022-09-14T08:09:40;3.83;;;1.13;;
20802;SDS011;10562;-33.856;151.182;2022-09-14T08:12:12;3.20;;;1.10;;
20802;SDS011;10562;-33.856;151.182;2022-09-14T08:14:43;3.35;;;1.10;;
20802;SDS011;10562;-33.856;151.182;2022-09-14T08:17:13;3.03;;;0.93;;
20802;SDS011;10562;-33.856;151.182;2022-09-14T08:19:49;3.42;;;1.00;;
20802;SDS011;10562;-33.856;151.182;2022-09-14T08:22:20;3.17;;;1.00;;
20802;SDS011;10562;-33.856;151.182;2022-09-14T08:24:51;4.55;;;1.08;;
20802;SDS011;10562;-33.856;151.182;2022-09-14T08:27:22;4.65;;;1.10;;
20802;SDS011;10562;-33.856;151.182;2022-09-14T08:29:53;2.60;;;0.90;;
20802;SDS011;10562;-33.856;151.182;2022-09-14T08:32:24;3.05;;;1.10;;
20802;SDS011;10562;-33.856;151.182;2022-09-14T08:34:56;4.40;;;1.38;;
20802;SDS011;10562;-33.856;151.182;2022-09-14T08:37:28;3.85;;;1.30;;
20802;SDS011;10562;-33.856;151.182;2022-09-14T08:39:59;5.07;;;1.30;;
20802;SDS011;10562;-33.856;151.182;2022-09-14T08:42:30;2.70;;;1.20;;
20802;SDS011;10562;-33.856;151.182;2022-09-14T08:45:01;3.65;;;1.40;;
20802;SDS011;10562;-33.856;151.182;2022-09-14T08:47:33;2.97;;;1.40;;
20802;SDS011;10562;-33.856;151.182;2022-09-14T08:50:11;3.53;;;1.20;;
20802;SDS011;10562;-33.856;151.182;2022-09-14T08:52:43;1.58;;;0.80;;
20802;SDS011;10562;-33.856;151.182;2022-09-14T08:55:18;1.85;;;0.90;;
20802;SDS011;10562;-33.856;151.182;2022-09-14T08:57:58;3.25;;;1.30;;
20802;SDS011;10562;-33.856;151.182;2022-09-14T09:00:38;5.97;;;1.30;;
20802;SDS011;10562;-33.856;151.182;2022-09-14T09:03:23;4.13;;;1.17;;
20802;SDS011;10562;-33.856;151.182;2022-09-14T09:06:20;5.57;;;1.35;;
20802;SDS011;10562;-33.856;151.182;2022-09-14T09:09:00;2.58;;;1.05;;
20802;SDS011;10562;-33.856;151.182;2022-09-14T09:11:36;5.35;;;1.30;;
20802;SDS011;10562;-33.856;151.182;2022-09-14T09:14:12;4.68;;;1.30;;
20802;SDS011;10562;-33.856;151.182;2022-09-14T09:16:48;4.53;;;1.40;;
20802;SDS011;10562;-33.856;151.182;2022-09-14T09:19:22;1.70;;;0.90;;
20802;SDS011;10562;-33.856;151.182;2022-09-14T09:22:00;4.38;;;1.20;;
20802;SDS011;10562;-33.856;151.182;2022-09-14T09:24:35;2.85;;;1.05;;
20802;SDS011;10562;-33.856;151.182;2022-09-14T09:27:11;3.20;;;1.00;;
20802;SDS011;10562;-33.856;151.182;2022-09-14T09:29:42;6.65;;;0.90;;
20802;SDS011;10562;-33.856;151.182;2022-09-14T09:32:13;3.17;;;0.88;;
20802;SDS011;10562;-33.856;151.182;2022-09-14T09:34:46;3.20;;;0.85;;
20802;SDS011;10562;-33.856;151.182;2022-09-14T09:37:19;4.47;;;1.00;;
20802;SDS011;10562;-33.856;151.182;2022-09-14T09:39:54;2.80;;;0.90;;
20802;SDS011;10562;-33.856;151.182;2022-09-14T09:42:25;3.50;;;0.88;;
20802;SDS011;10562;-33.856;151.182;2022-09-14T09:44:57;2.33;;;0.85;;
20802;SDS011;10562;-33.856;151.182;2022-09-14T09:47:29;2.50;;;0.98;;
20802;SDS011;10562;-33.856;151.182;2022-09-14T09:50:01;3.08;;;1.30;;
20802;SDS011;10562;-33.856;151.182;2022-09-14T09:52:35;3.30;;;1.10;;
20802;SDS011;10562;-33.856;151.182;2022-09-14T09:55:16;1.58;;;0.90;;
20802;SDS011;10562;-33.856;151.182;2022-09-14T09:57:48;3.72;;;1.02;;
20802;SDS011;10562;-33.856;151.182;2022-09-14T10:00:19;2.47;;;1.35;;
20802;SDS011;10562;-33.856;151.182;2022-09-14T10:02:52;7.97;;;1.90;;
20802;SDS011;10562;-33.856;151.182;2022-09-14T10:05:27;6.13;;;1.45;;
20802;SDS011;10562;-33.856;151.182;2022-09-14T10:08:02;4.35;;;1.48;;
20802;SDS011;10562;-33.856;151.182;2022-09-14T10:10:40;4.50;;;1.10;;
20802;SDS011;10562;-33.856;151.182;2022-09-14T10:13:17;3.63;;;1.05;;
20802;SDS011;10562;-33.856;151.182;2022-09-14T10:15:53;1.95;;;0.90;;
20802;SDS011;10562;-33.856;151.182;2022-09-14T10:18:35;3.88;;;1.00;;
20802;SDS011;10562;-33.856;151.182;2022-09-14T10:21:13;3.13;;;0.90;;
20802;SDS011;10562;-33.856;151.182;2022-09-14T10:23:47;3.17;;;0.70;;
20802;SDS011;10562;-33.856;151.182;2022-09-14T10:26:34;1.42;;;0.70;;
20802;SDS011;10562;-33.856;151.182;2022-09-14T10:32:00;3.92;;;0.85;;
20802;SDS011;10562;-33.856;151.182;2022-09-14T10:34:35;1.80;;;0.80;;
20802;SDS011;10562;-33.856;151.182;2022-09-14T10:37:13;1.88;;;0.80;;
20802;SDS011;10562;-33.856;151.182;2022-09-14T10:39:57;3.10;;;0.70;;
20802;SDS011;10562;-33.856;151.182;2022-09-14T10:42:48;3.17;;;0.70;;
20802;SDS011;10562;-33.856;151.182;2022-09-14T10:45:28;2.33;;;0.75;;
20802;SDS011;10562;-33.856;151.182;2022-09-14T10:48:09;3.95;;;0.63;;
20802;SDS011;10562;-33.856;151.182;2022-09-14T10:50:55;3.38;;;0.73;;
20802;SDS011;10562;-33.856;151.182;2022-09-14T10:53:36;6.53;;;0.82;;
20802;SDS011;10562;-33.856;151.182;2022-09-14T10:56:18;3.53;;;0.80;;
20802;SDS011;10562;-33.856;151.182;2022-09-14T11:01:59;3.30;;;1.00;;
20802;SDS011;10562;-33.856;151.182;2022-09-14T11:04:56;1.90;;;1.00;;
20802;SDS011;10562;-33.856;151.182;2022-09-14T11:07:37;3.33;;;0.90;;
20802;SDS011;10562;-33.856;151.182;2022-09-14T11:10:18;1.20;;;0.65;;
20802;SDS011;10562;-33.856;151.182;2022-09-14T11:13:15;3.75;;;0.70;;
20802;SDS011;10562;-33.856;151.182;2022-09-14T11:16:03;3.40;;;0.82;;
20802;SDS011;10562;-33.856;151.182;2022-09-14T11:18:43;5.70;;;0.80;;
20802;SDS011;10562;-33.856;151.182;2022-09-14T11:21:28;4.03;;;0.90;;
20802;SDS011;10562;-33.856;151.182;2022-09-14T11:24:06;2.38;;;0.90;;
20802;SDS011;10562;-33.856;151.182;2022-09-14T11:26:44;2.97;;;0.73;;
20802;SDS011;10562;-33.856;151.182;2022-09-14T11:29:29;1.88;;;0.82;;
20802;SDS011;10562;-33.856;151.182;2022-09-14T11:32:04;4.75;;;1.20;;
20802;SDS011;10562;-33.856;151.182;2022-09-14T11:34:40;5.03;;;1.05;;
20802;SDS011;10562;-33.856;151.182;2022-09-14T11:37:14;3.05;;;1.05;;
20802;SDS011;10562;-33.856;151.182;2022-09-14T11:39:48;2.58;;;1.00;;
20802;SDS011;10562;-33.856;151.182;2022-09-14T11:42:28;4.10;;;1.00;;
20802;SDS011;10562;-33.856;151.182;2022-09-14T11:45:06;3.05;;;0.80;;
20802;SDS011;10562;-33.856;151.182;2022-09-14T11:47:43;3.60;;;0.93;;
20802;SDS011;10562;-33.856;151.182;2022-09-14T11:50:18;3.60;;;1.10;;
20802;SDS011;10562;-33.856;151.182;2022-09-14T11:52:54;2.72;;;1.20;;
20802;SDS011;10562;-33.856;151.182;2022-09-14T11:55:31;2.92;;;1.00;;
20802;SDS011;10562;-33.856;151.182;2022-09-14T11:58:03;2.70;;;0.90;;
20802;SDS011;10562;-33.856;151.182;2022-09-14T12:00:44;2.15;;;0.93;;
20802;SDS011;10562;-33.856;151.182;2022-09-14T12:03:46;3.15;;;0.90;;
20802;SDS011;10562;-33.856;151.182;2022-09-14T12:12:29;2.35;;;1.00;;
20802;SDS011;10562;-33.856;151.182;2022-09-14T12:15:02;3.28;;;1.10;;
20802;SDS011;10562;-33.856;151.182;2022-09-14T12:17:50;2.10;;;0.90;;
20802;SDS011;10562;-33.856;151.182;2022-09-14T12:20:29;3.65;;;0.98;;
20802;SDS011;10562;-33.856;151.182;2022-09-14T12:25:53;2.80;;;0.90;;
20802;SDS011;10562;-33.856;151.182;2022-09-14T12:28:48;2.13;;;0.90;;
20802;SDS011;10562;-33.856;151.182;2022-09-14T12:31:35;4.15;;;1.10;;
20802;SDS011;10562;-33.856;151.182;2022-09-14T12:34:22;4.55;;;1.30;;
20802;SDS011;10562;-33.856;151.182;2022-09-14T12:36:57;4.47;;;1.17;;
20802;SDS011;10562;-33.856;151.182;2022-09-14T12:42:46;4.50;;;1.40;;
20802;SDS011;10562;-33.856;151.182;2022-09-14T12:51:26;5.13;;;2.00;;
20802;SDS011;10562;-33.856;151.182;2022-09-14T12:54:09;3.95;;;1.60;;
20802;SDS011;10562;-33.856;151.182;2022-09-14T12:56:57;5.35;;;1.50;;
20802;SDS011;10562;-33.856;151.182;2022-09-14T12:59:39;3.63;;;1.38;;
20802;SDS011;10562;-33.856;151.182;2022-09-14T13:02:34;4.05;;;1.58;;
20802;SDS011;10562;-33.856;151.182;2022-09-14T13:05:24;3.58;;;1.52;;
20802;SDS011;10562;-33.856;151.182;2022-09-14T13:07:58;3.80;;;1.55;;
20802;SDS011;10562;-33.856;151.182;2022-09-14T13:10:36;3.83;;;1.60;;
20802;SDS011;10562;-33.856;151.182;2022-09-14T13:13:14;4.07;;;1.50;;
20802;SDS011;10562;-33.856;151.182;2022-09-14T13:15:51;3.97;;;1.70;;
20802;SDS011;10562;-33.856;151.182;2022-09-14T13:18:27;3.63;;;1.90;;
20802;SDS011;10562;-33.856;151.182;2022-09-14T13:21:00;4.30;;;1.60;;
20802;SDS011;10562;-33.856;151.182;2022-09-14T13:23:46;3.22;;;1.75;;
20802;SDS011;10562;-33.856;151.182;2022-09-14T13:26:18;4.25;;;1.60;;
20802;SDS011;10562;-33.856;151.182;2022-09-14T13:28:51;4.43;;;1.75;;
20802;SDS011;10562;-33.856;151.182;2022-09-14T13:31:26;4.35;;;1.60;;
20802;SDS011;10562;-33.856;151.182;2022-09-14T13:33:59;3.20;;;1.80;;
20802;SDS011;10562;-33.856;151.182;2022-09-14T13:36:33;3.28;;;1.55;;
20802;SDS011;10562;-33.856;151.182;2022-09-14T13:39:11;5.13;;;1.73;;
20802;SDS011;10562;-33.856;151.182;2022-09-14T13:41:51;5.10;;;1.65;;
20802;SDS011;10562;-33.856;151.182;2022-09-14T13:44:25;2.35;;;1.65;;
20802;SDS011;10562;-33.856;151.182;2022-09-14T13:46:57;5.50;;;1.80;;
20802;SDS011;10562;-33.856;151.182;2022-09-14T13:49:33;4.35;;;1.90;;
20802;SDS011;10562;-33.856;151.182;2022-09-14T13:52:25;4.20;;;2.00;;
20802;SDS011;10562;-33.856;151.182;2022-09-14T13:55:11;5.60;;;2.10;;
20802;SDS011;10562;-33.856;151.182;2022-09-14T13:58:14;3.78;;;2.30;;
20802;SDS011;10562;-33.856;151.182;2022-09-14T14:00:50;3.35;;;2.30;;
20802;SDS011;10562;-33.856;151.182;2022-09-14T14:03:30;3.15;;;2.28;;
20802;SDS011;10562;-33.856;151.182;2022-09-14T14:06:20;4.65;;;2.60;;
20802;SDS011;10562;-33.856;151.182;2022-09-14T14:08:57;3.47;;;2.13;;
20802;SDS011;10562;-33.856;151.182;2022-09-14T14:11:32;4.82;;;2.67;;
20802;SDS011;10562;-33.856;151.182;2022-09-14T14:14:10;7.15;;;3.00;;
20802;SDS011;10562;-33.856;151.182;2022-09-14T14:19:54;6.80;;;3.80;;
20802;SDS011;10562;-33.856;151.182;2022-09-14T14:22:26;7.22;;;4.40;;
20802;SDS011;10562;-33.856;151.182;2022-09-14T14:24:58;7.55;;;5.32;;
20802;SDS011;10562;-33.856;151.182;2022-09-14T14:27:47;6.68;;;5.97;;
20802;SDS011;10562;-33.856;151.182;2022-09-14T14:30:25;7.57;;;6.28;;
20802;SDS011;10562;-33.856;151.182;2022-09-14T14:32:57;8.23;;;6.03;;
20802;SDS011;10562;-33.856;151.182;2022-09-14T14:35:28;8.23;;;6.03;;
20802;SDS011;10562;-33.856;151.182;2022-09-14T14:37:59;5.82;;;5.20;;
20802;SDS011;10562;-33.856;151.182;2022-09-14T14:40:33;6.93;;;5.30;;
20802;SDS011;10562;-33.856;151.182;2022-09-14T14:43:06;6.97;;;4.63;;
20802;SDS011;10562;-33.856;151.182;2022-09-14T14:45:40;6.95;;;4.47;;
20802;SDS011;10562;-33.856;151.182;2022-09-14T14:48:11;6.10;;;4.75;;
20802;SDS011;10562;-33.856;151.182;2022-09-14T14:50:43;6.00;;;3.10;;
20802;SDS011;10562;-33.856;151.182;2022-09-14T14:53:14;6.13;;;2.78;;
20802;SDS011;10562;-33.856;151.182;2022-09-14T14:55:45;5.50;;;2.60;;
20802;SDS011;10562;-33.856;151.182;2022-09-14T14:58:18;3.55;;;2.45;;
20802;SDS011;10562;-33.856;151.182;2022-09-14T15:00:49;6.15;;;2.25;;
20802;SDS011;10562;-33.856;151.182;2022-09-14T15:03:20;6.22;;;2.30;;
20802;SDS011;10562;-33.856;151.182;2022-09-14T15:05:51;2.97;;;2.15;;
20802;SDS011;10562;-33.856;151.182;2022-09-14T15:08:22;4.40;;;2.10;;
20802;SDS011;10562;-33.856;151.182;2022-09-14T15:10:54;4.57;;;2.28;;
20802;SDS011;10562;-33.856;151.182;2022-09-14T15:13:27;5.65;;;2.30;;
20802;SDS011;10562;-33.856;151.182;2022-09-14T15:15:58;4.88;;;2.35;;
20802;SDS011;10562;-33.856;151.182;2022-09-14T15:18:29;4.57;;;2.05;;
20802;SDS011;10562;-33.856;151.182;2022-09-14T15:21:00;3.63;;;2.20;;
20802;SDS011;10562;-33.856;151.182;2022-09-14T15:23:30;6.07;;;2.30;;